sensor_id;sensor_type;location;lat;lon;timestamp;temperature;humidity
47576;DHT22;33304;52.456;13.328;2023-12-22T00:00:35;5.10;22.30
47576;DHT22;33304;52.456;13.328;2023-12-22T00:03:02;5.00;21.80
47576;DHT22;33304;52.456;13.328;2023-12-22T00:05:30;5.00;21.80
47576;DHT22;33304;52.456;13.328;2023-12-22T00:07:58;5.00;22.60
47576;DHT22;33304;52.456;13.328;2023-12-22T00:10:25;4.90;22.50
47576;DHT22;33304;52.456;13.328;2023-12-22T00:12:52;4.90;20.80
47576;DHT22;33304;52.456;13.328;2023-12-22T00:15:19;4.80;20.50
47576;DHT22;33304;52.456;13.328;2023-12-22T00:17:46;4.80;19.80
47576;DHT22;33304;52.456;13.328;2023-12-22T00:20:13;4.80;19.40
47576;DHT22;33304;52.456;13.328;2023-12-22T00:22:40;4.80;19.40
47576;DHT22;33304;52.456;13.328;2023-12-22T00:25:09;4.80;17.50
47576;DHT22;33304;52.456;13.328;2023-12-22T00:27:36;4.90;18.60
47576;DHT22;33304;52.456;13.328;2023-12-22T00:30:04;4.90;17.50
47576;DHT22;33304;52.456;13.328;2023-12-22T00:32:32;4.90;15.90
47576;DHT22;33304;52.456;13.328;2023-12-22T00:34:59;5.00;15.40
47576;DHT22;33304;52.456;13.328;2023-12-22T00:37:26;5.00;14.20
47576;DHT22;33304;52.456;13.328;2023-12-22T00:39:53;5.00;14.50
47576;DHT22;33304;52.456;13.328;2023-12-22T00:42:21;5.10;14.60
47576;DHT22;33304;52.456;13.328;2023-12-22T00:44:48;5.10;14.40
47576;DHT22;33304;52.456;13.328;2023-12-22T00:47:16;5.10;15.50
47576;DHT22;33304;52.456;13.328;2023-12-22T00:49:43;5.10;16.40
47576;DHT22;33304;52.456;13.328;2023-12-22T00:52:10;5.00;16.80
47576;DHT22;33304;52.456;13.328;2023-12-22T00:54:37;5.00;18.30
47576;DHT22;33304;52.456;13.328;2023-12-22T00:57:04;5.00;19.50
47576;DHT22;33304;52.456;13.328;2023-12-22T00:59:32;4.90;20.80
47576;DHT22;33304;52.456;13.328;2023-12-22T01:01:59;4.80;22.20
47576;DHT22;33304;52.456;13.328;2023-12-22T01:04:27;4.80;23.80
47576;DHT22;33304;52.456;13.328;2023-12-22T01:06:54;4.80;23.20
47576;DHT22;33304;52.456;13.328;2023-12-22T01:09:21;4.70;23.70
47576;DHT22;33304;52.456;13.328;2023-12-22T01:11:48;4.80;24.00
47576;DHT22;33304;52.456;13.328;2023-12-22T01:14:15;4.80;24.00
47576;DHT22;33304;52.456;13.328;2023-12-22T01:16:43;4.70;24.10
47576;DHT22;33304;52.456;13.328;2023-12-22T01:19:11;4.80;24.00
47576;DHT22;33304;52.456;13.328;2023-12-22T01:21:38;4.80;24.00
47576;DHT22;33304;52.456;13.328;2023-12-22T01:24:05;4.80;23.30
47576;DHT22;33304;52.456;13.328;2023-12-22T01:26:32;4.90;24.00
47576;DHT22;33304;52.456;13.328;2023-12-22T01:28:59;4.80;24.00
47576;DHT22;33304;52.456;13.328;2023-12-22T01:31:26;4.80;24.00
47576;DHT22;33304;52.456;13.328;2023-12-22T01:33:54;4.80;24.10
47576;DHT22;33304;52.456;13.328;2023-12-22T01:36:21;4.90;24.30
47576;DHT22;33304;52.456;13.328;2023-12-22T01:38:48;4.80;24.10
47576;DHT22;33304;52.456;13.328;2023-12-22T01:41:15;4.80;24.80
47576;DHT22;33304;52.456;13.328;2023-12-22T01:43:43;4.70;25.00
47576;DHT22;33304;52.456;13.328;2023-12-22T01:46:10;4.70;25.50
47576;DHT22;33304;52.456;13.328;2023-12-22T01:48:38;4.70;24.90
47576;DHT22;33304;52.456;13.328;2023-12-22T01:51:07;4.70;24.90
47576;DHT22;33304;52.456;13.328;2023-12-22T01:53:35;4.70;25.60
47576;DHT22;33304;52.456;13.328;2023-12-22T01:56:02;4.70;25.30
47576;DHT22;33304;52.456;13.328;2023-12-22T01:58:30;4.70;25.80
47576;DHT22;33304;52.456;13.328;2023-12-22T02:01:06;4.60;25.90
47576;DHT22;33304;52.456;13.328;2023-12-22T02:03:33;4.60;25.90
47576;DHT22;33304;52.456;13.328;2023-12-22T02:06:03;4.60;25.50
47576;DHT22;33304;52.456;13.328;2023-12-22T02:08:32;4.60;25.40
47576;DHT22;33304;52.456;13.328;2023-12-22T02:11:00;4.70;25.40
47576;DHT22;33304;52.456;13.328;2023-12-22T02:13:27;4.70;25.20
47576;DHT22;33304;52.456;13.328;2023-12-22T02:16:01;4.70;25.70
47576;DHT22;33304;52.456;13.328;2023-12-22T02:18:33;4.70;25.90
47576;DHT22;33304;52.456;13.328;2023-12-22T02:21:01;4.70;26.10
47576;DHT22;33304;52.456;13.328;2023-12-22T02:23:30;4.60;26.50
47576;DHT22;33304;52.456;13.328;2023-12-22T02:26:06;4.60;27.00
47576;DHT22;33304;52.456;13.328;2023-12-22T02:28:34;4.60;27.70
47576;DHT22;33304;52.456;13.328;2023-12-22T02:31:06;4.60;27.70
47576;DHT22;33304;52.456;13.328;2023-12-22T02:33:39;4.60;28.20
47576;DHT22;33304;52.456;13.328;2023-12-22T02:36:09;4.50;28.00
47576;DHT22;33304;52.456;13.328;2023-12-22T02:38:38;4.60;27.20
47576;DHT22;33304;52.456;13.328;2023-12-22T02:41:06;4.60;26.80
47576;DHT22;33304;52.456;13.328;2023-12-22T02:43:33;4.60;26.80
47576;DHT22;33304;52.456;13.328;2023-12-22T02:46:01;4.50;27.20
47576;DHT22;33304;52.456;13.328;2023-12-22T02:48:28;4.50;27.00
47576;DHT22;33304;52.456;13.328;2023-12-22T02:50:55;4.60;27.50
47576;DHT22;33304;52.456;13.328;2023-12-22T02:53:22;4.50;27.30
47576;DHT22;33304;52.456;13.328;2023-12-22T02:55:51;4.50;26.90
47576;DHT22;33304;52.456;13.328;2023-12-22T02:58:18;4.50;27.60
47576;DHT22;33304;52.456;13.328;2023-12-22T03:00:45;4.50;28.10
47576;DHT22;33304;52.456;13.328;2023-12-22T03:03:12;4.50;27.50
47576;DHT22;33304;52.456;13.328;2023-12-22T03:05:39;4.50;27.30
47576;DHT22;33304;52.456;13.328;2023-12-22T03:08:07;4.50;26.70
47576;DHT22;33304;52.456;13.328;2023-12-22T03:10:34;4.50;26.40
47576;DHT22;33304;52.456;13.328;2023-12-22T03:13:02;4.60;26.30
47576;DHT22;33304;52.456;13.328;2023-12-22T03:15:29;4.50;25.90
47576;DHT22;33304;52.456;13.328;2023-12-22T03:17:56;4.50;26.40
47576;DHT22;33304;52.456;13.328;2023-12-22T03:20:23;4.50;26.50
47576;DHT22;33304;52.456;13.328;2023-12-22T03:22:50;4.50;26.00
47576;DHT22;33304;52.456;13.328;2023-12-22T03:25:17;4.50;26.80
47576;DHT22;33304;52.456;13.328;2023-12-22T03:27:45;4.50;27.20
47576;DHT22;33304;52.456;13.328;2023-12-22T03:30:14;4.50;27.90
47576;DHT22;33304;52.456;13.328;2023-12-22T03:32:41;4.50;28.40
47576;DHT22;33304;52.456;13.328;2023-12-22T03:35:08;4.40;28.40
47576;DHT22;33304;52.456;13.328;2023-12-22T03:37:35;4.40;28.10
47576;DHT22;33304;52.456;13.328;2023-12-22T03:40:02;4.50;28.40
47576;DHT22;33304;52.456;13.328;2023-12-22T03:42:29;4.50;27.50
47576;DHT22;33304;52.456;13.328;2023-12-22T03:44:56;4.50;27.00
47576;DHT22;33304;52.456;13.328;2023-12-22T03:47:25;4.50;27.80
47576;DHT22;33304;52.456;13.328;2023-12-22T03:49:52;4.50;27.90
47576;DHT22;33304;52.456;13.328;2023-12-22T03:52:19;4.50;28.10
47576;DHT22;33304;52.456;13.328;2023-12-22T03:54:46;4.50;27.80
47576;DHT22;33304;52.456;13.328;2023-12-22T03:57:13;4.50;28.30
47576;DHT22;33304;52.456;13.328;2023-12-22T03:59:40;4.50;28.40
47576;DHT22;33304;52.456;13.328;2023-12-22T04:02:09;4.60;28.50
47576;DHT22;33304;52.456;13.328;2023-12-22T04:04:38;4.60;28.40
47576;DHT22;33304;52.456;13.328;2023-12-22T04:07:06;4.50;28.20
47576;DHT22;33304;52.456;13.328;2023-12-22T04:09:33;4.50;28.40
47576;DHT22;33304;52.456;13.328;2023-12-22T04:11:59;4.50;28.40
47576;DHT22;33304;52.456;13.328;2023-12-22T04:14:26;4.40;31.80
47576;DHT22;33304;52.456;13.328;2023-12-22T04:16:53;4.20;39.20
47576;DHT22;33304;52.456;13.328;2023-12-22T04:19:20;4.10;43.90
47576;DHT22;33304;52.456;13.328;2023-12-22T04:21:48;4.00;47.90
47576;DHT22;33304;52.456;13.328;2023-12-22T04:24:15;3.90;54.60
47576;DHT22;33304;52.456;13.328;2023-12-22T04:26:43;3.90;61.00
47576;DHT22;33304;52.456;13.328;2023-12-22T04:29:10;3.90;63.50
47576;DHT22;33304;52.456;13.328;2023-12-22T04:31:37;3.80;71.70
47576;DHT22;33304;52.456;13.328;2023-12-22T04:34:04;3.80;80.20
47576;DHT22;33304;52.456;13.328;2023-12-22T04:36:31;3.70;78.20
47576;DHT22;33304;52.456;13.328;2023-12-22T04:38:59;3.70;78.70
47576;DHT22;33304;52.456;13.328;2023-12-22T04:41:26;3.70;80.20
47576;DHT22;33304;52.456;13.328;2023-12-22T04:43:53;3.80;83.10
47576;DHT22;33304;52.456;13.328;2023-12-22T04:46:20;3.70;82.00
47576;DHT22;33304;52.456;13.328;2023-12-22T04:48:47;3.70;81.90
47576;DHT22;33304;52.456;13.328;2023-12-22T04:51:14;3.80;88.10
47576;DHT22;33304;52.456;13.328;2023-12-22T04:53:41;3.80;88.90
47576;DHT22;33304;52.456;13.328;2023-12-22T04:56:10;3.80;93.20
47576;DHT22;33304;52.456;13.328;2023-12-22T04:58:37;3.60;95.90
47576;DHT22;33304;52.456;13.328;2023-12-22T05:01:04;3.50;99.40
47576;DHT22;33304;52.456;13.328;2023-12-22T05:03:31;3.40;99.90
47576;DHT22;33304;52.456;13.328;2023-12-22T05:05:58;3.10;99.90
47576;DHT22;33304;52.456;13.328;2023-12-22T05:08:25;3.00;99.90
47576;DHT22;33304;52.456;13.328;2023-12-22T05:10:52;3.00;99.90
47576;DHT22;33304;52.456;13.328;2023-12-22T05:13:21;2.90;99.90
47576;DHT22;33304;52.456;13.328;2023-12-22T05:15:48;2.90;99.90
47576;DHT22;33304;52.456;13.328;2023-12-22T05:18:15;3.00;99.90
47576;DHT22;33304;52.456;13.328;2023-12-22T05:20:42;2.90;99.90
47576;DHT22;33304;52.456;13.328;2023-12-22T05:23:10;2.90;99.90
47576;DHT22;33304;52.456;13.328;2023-12-22T05:25:37;3.00;99.90
47576;DHT22;33304;52.456;13.328;2023-12-22T05:28:04;3.00;99.90
47576;DHT22;33304;52.456;13.328;2023-12-22T05:30:32;2.90;99.90
47576;DHT22;33304;52.456;13.328;2023-12-22T05:32:59;3.00;99.90
47576;DHT22;33304;52.456;13.328;2023-12-22T05:35:26;3.00;99.90
47576;DHT22;33304;52.456;13.328;2023-12-22T05:37:53;3.10;99.90
47576;DHT22;33304;52.456;13.328;2023-12-22T05:40:20;3.10;99.90
47576;DHT22;33304;52.456;13.328;2023-12-22T05:42:47;3.00;99.90
47576;DHT22;33304;52.456;13.328;2023-12-22T05:45:15;3.00;99.90
47576;DHT22;33304;52.456;13.328;2023-12-22T05:47:43;3.00;99.90
47576;DHT22;33304;52.456;13.328;2023-12-22T05:50:10;3.10;99.90
47576;DHT22;33304;52.456;13.328;2023-12-22T05:52:38;3.00;99.90
47576;DHT22;33304;52.456;13.328;2023-12-22T05:55:06;3.10;99.90
47576;DHT22;33304;52.456;13.328;2023-12-22T05:57:34;3.10;99.90
47576;DHT22;33304;52.456;13.328;2023-12-22T06:00:01;3.10;99.90
47576;DHT22;33304;52.456;13.328;2023-12-22T06:02:31;3.10;99.90
47576;DHT22;33304;52.456;13.328;2023-12-22T06:04:59;3.10;99.90
47576;DHT22;33304;52.456;13.328;2023-12-22T06:07:27;3.10;99.90
47576;DHT22;33304;52.456;13.328;2023-12-22T06:09:54;3.10;99.90
47576;DHT22;33304;52.456;13.328;2023-12-22T06:12:21;3.10;90.30
47576;DHT22;33304;52.456;13.328;2023-12-22T06:14:48;3.20;88.70
47576;DHT22;33304;52.456;13.328;2023-12-22T06:17:15;3.10;81.40
47576;DHT22;33304;52.456;13.328;2023-12-22T06:19:43;3.20;82.40
47576;DHT22;33304;52.456;13.328;2023-12-22T06:22:11;3.30;71.40
47576;DHT22;33304;52.456;13.328;2023-12-22T06:24:38;3.30;66.10
47576;DHT22;33304;52.456;13.328;2023-12-22T06:27:05;3.30;65.80
47576;DHT22;33304;52.456;13.328;2023-12-22T06:29:33;3.20;60.80
47576;DHT22;33304;52.456;13.328;2023-12-22T06:32:00;3.20;65.30
47576;DHT22;33304;52.456;13.328;2023-12-22T06:34:27;3.20;63.70
47576;DHT22;33304;52.456;13.328;2023-12-22T06:36:54;3.20;62.70
47576;DHT22;33304;52.456;13.328;2023-12-22T06:39:23;3.20;66.00
47576;DHT22;33304;52.456;13.328;2023-12-22T06:41:50;3.20;68.80
47576;DHT22;33304;52.456;13.328;2023-12-22T06:44:17;3.20;72.90
47576;DHT22;33304;52.456;13.328;2023-12-22T06:46:44;3.20;75.80
47576;DHT22;33304;52.456;13.328;2023-12-22T06:49:12;3.20;78.10
47576;DHT22;33304;52.456;13.328;2023-12-22T06:51:39;3.20;83.00
47576;DHT22;33304;52.456;13.328;2023-12-22T06:54:06;3.20;89.40
47576;DHT22;33304;52.456;13.328;2023-12-22T06:56:35;3.20;90.30
47576;DHT22;33304;52.456;13.328;2023-12-22T06:59:02;3.20;87.90
47576;DHT22;33304;52.456;13.328;2023-12-22T07:01:30;3.20;87.90
47576;DHT22;33304;52.456;13.328;2023-12-22T07:03:58;3.20;89.00
47576;DHT22;33304;52.456;13.328;2023-12-22T07:06:28;3.20;85.20
47576;DHT22;33304;52.456;13.328;2023-12-22T07:08:57;3.30;74.30
47576;DHT22;33304;52.456;13.328;2023-12-22T07:11:24;3.40;66.10
47576;DHT22;33304;52.456;13.328;2023-12-22T07:13:52;3.40;60.70
47576;DHT22;33304;52.456;13.328;2023-12-22T07:16:20;3.50;61.20
47576;DHT22;33304;52.456;13.328;2023-12-22T07:18:47;3.50;63.70
47576;DHT22;33304;52.456;13.328;2023-12-22T07:21:16;3.50;63.70
47576;DHT22;33304;52.456;13.328;2023-12-22T07:23:44;3.40;65.80
47576;DHT22;33304;52.456;13.328;2023-12-22T07:26:11;3.40;68.30
47576;DHT22;33304;52.456;13.328;2023-12-22T07:28:39;3.50;60.70
47576;DHT22;33304;52.456;13.328;2023-12-22T07:31:07;3.50;60.70
47576;DHT22;33304;52.456;13.328;2023-12-22T07:33:34;3.50;62.80
47576;DHT22;33304;52.456;13.328;2023-12-22T07:36:02;3.50;58.20
47576;DHT22;33304;52.456;13.328;2023-12-22T07:38:29;3.40;60.60
47576;DHT22;33304;52.456;13.328;2023-12-22T07:40:56;3.50;55.60
47576;DHT22;33304;52.456;13.328;2023-12-22T07:43:24;3.50;53.70
47576;DHT22;33304;52.456;13.328;2023-12-22T07:45:51;3.50;55.00
47576;DHT22;33304;52.456;13.328;2023-12-22T07:48:21;3.50;49.80
47576;DHT22;33304;52.456;13.328;2023-12-22T07:50:50;3.60;50.00
47576;DHT22;33304;52.456;13.328;2023-12-22T07:53:17;3.70;47.30
47576;DHT22;33304;52.456;13.328;2023-12-22T07:55:46;3.60;48.30
47576;DHT22;33304;52.456;13.328;2023-12-22T07:58:13;3.60;47.10
47576;DHT22;33304;52.456;13.328;2023-12-22T08:00:41;3.60;42.50
47576;DHT22;33304;52.456;13.328;2023-12-22T08:03:08;3.60;45.40
47576;DHT22;33304;52.456;13.328;2023-12-22T08:05:37;3.70;43.10
47576;DHT22;33304;52.456;13.328;2023-12-22T08:08:04;3.70;41.70
47576;DHT22;33304;52.456;13.328;2023-12-22T08:10:31;3.70;39.60
47576;DHT22;33304;52.456;13.328;2023-12-22T08:12:58;3.70;40.00
47576;DHT22;33304;52.456;13.328;2023-12-22T08:15:25;3.60;38.80
47576;DHT22;33304;52.456;13.328;2023-12-22T08:17:52;3.60;39.10
47576;DHT22;33304;52.456;13.328;2023-12-22T08:20:20;3.50;41.40
47576;DHT22;33304;52.456;13.328;2023-12-22T08:22:50;3.50;44.00
47576;DHT22;33304;52.456;13.328;2023-12-22T08:25:17;3.50;44.30
47576;DHT22;33304;52.456;13.328;2023-12-22T08:27:46;3.40;45.30
47576;DHT22;33304;52.456;13.328;2023-12-22T08:30:13;3.40;48.90
47576;DHT22;33304;52.456;13.328;2023-12-22T08:32:41;3.40;49.80
47576;DHT22;33304;52.456;13.328;2023-12-22T08:35:08;3.30;46.00
47576;DHT22;33304;52.456;13.328;2023-12-22T08:37:35;3.30;47.20
47576;DHT22;33304;52.456;13.328;2023-12-22T08:40:05;3.30;48.00
47576;DHT22;33304;52.456;13.328;2023-12-22T08:42:32;3.40;47.40
47576;DHT22;33304;52.456;13.328;2023-12-22T08:45:00;3.30;46.20
47576;DHT22;33304;52.456;13.328;2023-12-22T08:47:28;3.30;46.60
47576;DHT22;33304;52.456;13.328;2023-12-22T08:49:55;3.30;46.90
47576;DHT22;33304;52.456;13.328;2023-12-22T08:52:22;3.40;43.60
47576;DHT22;33304;52.456;13.328;2023-12-22T08:54:49;3.40;40.20
47576;DHT22;33304;52.456;13.328;2023-12-22T08:57:17;3.50;39.00
47576;DHT22;33304;52.456;13.328;2023-12-22T08:59:44;3.50;38.10
47576;DHT22;33304;52.456;13.328;2023-12-22T09:02:12;3.60;38.60
47576;DHT22;33304;52.456;13.328;2023-12-22T09:04:39;3.60;36.50
47576;DHT22;33304;52.456;13.328;2023-12-22T09:07:06;3.60;37.10
47576;DHT22;33304;52.456;13.328;2023-12-22T09:09:35;3.60;35.90
47576;DHT22;33304;52.456;13.328;2023-12-22T09:12:02;3.70;33.80
47576;DHT22;33304;52.456;13.328;2023-12-22T09:14:31;3.80;33.60
47576;DHT22;33304;52.456;13.328;2023-12-22T09:16:59;3.80;30.20
47576;DHT22;33304;52.456;13.328;2023-12-22T09:19:26;3.90;31.40
47576;DHT22;33304;52.456;13.328;2023-12-22T09:21:53;3.90;29.80
47576;DHT22;33304;52.456;13.328;2023-12-22T09:24:20;4.00;28.10
47576;DHT22;33304;52.456;13.328;2023-12-22T09:26:47;4.00;27.20
47576;DHT22;33304;52.456;13.328;2023-12-22T09:29:15;4.00;25.60
47576;DHT22;33304;52.456;13.328;2023-12-22T09:31:44;4.10;24.10
47576;DHT22;33304;52.456;13.328;2023-12-22T09:34:11;4.10;23.50
47576;DHT22;33304;52.456;13.328;2023-12-22T09:36:38;4.10;23.30
47576;DHT22;33304;52.456;13.328;2023-12-22T09:39:06;4.10;22.70
47576;DHT22;33304;52.456;13.328;2023-12-22T09:41:33;4.20;23.70
47576;DHT22;33304;52.456;13.328;2023-12-22T09:44:02;4.20;22.40
47576;DHT22;33304;52.456;13.328;2023-12-22T09:46:31;4.30;20.70
47576;DHT22;33304;52.456;13.328;2023-12-22T09:49:00;4.20;21.90
47576;DHT22;33304;52.456;13.328;2023-12-22T09:51:28;4.30;21.50
47576;DHT22;33304;52.456;13.328;2023-12-22T09:53:56;4.30;21.20
47576;DHT22;33304;52.456;13.328;2023-12-22T09:56:25;4.30;21.10
47576;DHT22;33304;52.456;13.328;2023-12-22T09:58:53;4.40;21.30
47576;DHT22;33304;52.456;13.328;2023-12-22T10:01:21;4.50;21.30
47576;DHT22;33304;52.456;13.328;2023-12-22T10:03:49;4.50;20.40
47576;DHT22;33304;52.456;13.328;2023-12-22T10:06:18;4.50;19.80
47576;DHT22;33304;52.456;13.328;2023-12-22T10:08:46;4.50;19.40
47576;DHT22;33304;52.456;13.328;2023-12-22T10:11:17;4.60;19.20
47576;DHT22;33304;52.456;13.328;2023-12-22T10:13:46;4.60;19.20
47576;DHT22;33304;52.456;13.328;2023-12-22T10:16:15;4.60;19.20
47576;DHT22;33304;52.456;13.328;2023-12-22T10:18:42;4.70;17.40
47576;DHT22;33304;52.456;13.328;2023-12-22T10:21:09;4.70;16.80
47576;DHT22;33304;52.456;13.328;2023-12-22T10:23:38;4.80;16.20
47576;DHT22;33304;52.456;13.328;2023-12-22T10:26:05;4.80;15.80
47576;DHT22;33304;52.456;13.328;2023-12-22T10:28:34;4.80;14.50
47576;DHT22;33304;52.456;13.328;2023-12-22T10:31:02;5.00;14.40
47576;DHT22;33304;52.456;13.328;2023-12-22T10:33:32;4.90;13.40
47576;DHT22;33304;52.456;13.328;2023-12-22T10:35:59;5.00;15.10
47576;DHT22;33304;52.456;13.328;2023-12-22T10:38:27;5.00;14.10
47576;DHT22;33304;52.456;13.328;2023-12-22T10:41:00;5.00;13.80
47576;DHT22;33304;52.456;13.328;2023-12-22T10:43:27;5.00;13.80
47576;DHT22;33304;52.456;13.328;2023-12-22T10:45:54;5.20;12.80
47576;DHT22;33304;52.456;13.328;2023-12-22T10:48:22;5.20;12.50
47576;DHT22;33304;52.456;13.328;2023-12-22T10:50:49;5.20;12.70
47576;DHT22;33304;52.456;13.328;2023-12-22T10:53:16;5.30;12.40
47576;DHT22;33304;52.456;13.328;2023-12-22T10:55:46;5.30;12.90
47576;DHT22;33304;52.456;13.328;2023-12-22T10:58:18;5.30;11.40
47576;DHT22;33304;52.456;13.328;2023-12-22T11:00:46;5.30;11.40
47576;DHT22;33304;52.456;13.328;2023-12-22T11:03:17;5.30;11.10
47576;DHT22;33304;52.456;13.328;2023-12-22T11:05:46;5.20;11.60
47576;DHT22;33304;52.456;13.328;2023-12-22T11:08:19;5.30;11.10
47576;DHT22;33304;52.456;13.328;2023-12-22T11:10:59;5.30;10.40
47576;DHT22;33304;52.456;13.328;2023-12-22T11:13:28;5.30;11.40
47576;DHT22;33304;52.456;13.328;2023-12-22T11:15:56;5.30;11.00
47576;DHT22;33304;52.456;13.328;2023-12-22T11:18:23;5.20;11.10
47576;DHT22;33304;52.456;13.328;2023-12-22T11:20:51;5.20;11.80
47576;DHT22;33304;52.456;13.328;2023-12-22T11:23:20;5.10;12.10
47576;DHT22;33304;52.456;13.328;2023-12-22T11:25:48;5.20;11.80
47576;DHT22;33304;52.456;13.328;2023-12-22T11:28:20;5.20;10.50
47576;DHT22;33304;52.456;13.328;2023-12-22T11:30:50;5.30;11.40
47576;DHT22;33304;52.456;13.328;2023-12-22T11:33:18;5.40;10.10
47576;DHT22;33304;52.456;13.328;2023-12-22T11:35:46;5.40;10.10
47576;DHT22;33304;52.456;13.328;2023-12-22T11:38:14;5.40;10.10
47576;DHT22;33304;52.456;13.328;2023-12-22T11:40:41;5.40;10.10
47576;DHT22;33304;52.456;13.328;2023-12-22T11:43:08;5.50;10.20
47576;DHT22;33304;52.456;13.328;2023-12-22T11:45:36;5.60;10.20
47576;DHT22;33304;52.456;13.328;2023-12-22T11:48:07;5.50;10.20
47576;DHT22;33304;52.456;13.328;2023-12-22T11:50:34;5.50;10.20
47576;DHT22;33304;52.456;13.328;2023-12-22T11:53:17;5.40;12.30
47576;DHT22;33304;52.456;13.328;2023-12-22T11:55:58;5.30;10.70
47576;DHT22;33304;52.456;13.328;2023-12-22T11:58:35;5.30;11.20
47576;DHT22;33304;52.456;13.328;2023-12-22T12:01:05;5.20;12.20
47576;DHT22;33304;52.456;13.328;2023-12-22T12:03:36;5.30;12.30
47576;DHT22;33304;52.456;13.328;2023-12-22T12:06:15;5.40;11.60
47576;DHT22;33304;52.456;13.328;2023-12-22T12:08:43;5.40;12.80
47576;DHT22;33304;52.456;13.328;2023-12-22T12:11:10;5.30;11.40
47576;DHT22;33304;52.456;13.328;2023-12-22T12:13:42;5.30;11.80
47576;DHT22;33304;52.456;13.328;2023-12-22T12:16:11;5.30;12.00
47576;DHT22;33304;52.456;13.328;2023-12-22T12:18:40;5.30;12.60
47576;DHT22;33304;52.456;13.328;2023-12-22T12:21:09;5.30;11.90
47576;DHT22;33304;52.456;13.328;2023-12-22T12:23:38;5.30;11.20
47576;DHT22;33304;52.456;13.328;2023-12-22T12:26:06;5.30;12.50
47576;DHT22;33304;52.456;13.328;2023-12-22T12:28:35;5.30;12.20
47576;DHT22;33304;52.456;13.328;2023-12-22T12:31:04;5.40;13.10
47576;DHT22;33304;52.456;13.328;2023-12-22T12:33:32;5.30;11.40
47576;DHT22;33304;52.456;13.328;2023-12-22T12:36:01;5.30;11.70
47576;DHT22;33304;52.456;13.328;2023-12-22T12:38:38;5.30;11.30
47576;DHT22;33304;52.456;13.328;2023-12-22T12:41:09;5.30;11.70
47576;DHT22;33304;52.456;13.328;2023-12-22T12:43:41;5.20;11.60
47576;DHT22;33304;52.456;13.328;2023-12-22T12:46:09;5.30;13.80
47576;DHT22;33304;52.456;13.328;2023-12-22T12:48:36;5.30;12.20
47576;DHT22;33304;52.456;13.328;2023-12-22T12:51:06;5.40;12.60
47576;DHT22;33304;52.456;13.328;2023-12-22T12:53:34;5.30;13.10
47576;DHT22;33304;52.456;13.328;2023-12-22T12:56:04;5.20;13.50
47576;DHT22;33304;52.456;13.328;2023-12-22T12:58:32;5.10;13.70
47576;DHT22;33304;52.456;13.328;2023-12-22T13:01:04;5.20;13.10
47576;DHT22;33304;52.456;13.328;2023-12-22T13:03:32;5.30;13.30
47576;DHT22;33304;52.456;13.328;2023-12-22T13:06:07;5.50;12.90
47576;DHT22;33304;52.456;13.328;2023-12-22T13:08:35;5.60;12.60
47576;DHT22;33304;52.456;13.328;2023-12-22T13:11:03;5.70;10.90
47576;DHT22;33304;52.456;13.328;2023-12-22T13:13:40;5.70;12.00
47576;DHT22;33304;52.456;13.328;2023-12-22T13:16:07;5.70;12.20
47576;DHT22;33304;52.456;13.328;2023-12-22T13:18:35;5.60;10.50
47576;DHT22;33304;52.456;13.328;2023-12-22T13:21:03;5.40;10.30
47576;DHT22;33304;52.456;13.328;2023-12-22T13:23:32;5.30;11.40
47576;DHT22;33304;52.456;13.328;2023-12-22T13:25:59;5.30;11.40
47576;DHT22;33304;52.456;13.328;2023-12-22T13:28:26;5.30;11.30
47576;DHT22;33304;52.456;13.328;2023-12-22T13:30:55;5.30;10.80
47576;DHT22;33304;52.456;13.328;2023-12-22T13:33:22;5.30;10.00
47576;DHT22;33304;52.456;13.328;2023-12-22T13:35:50;5.30;10.10
47576;DHT22;33304;52.456;13.328;2023-12-22T13:38:18;5.30;10.70
47576;DHT22;33304;52.456;13.328;2023-12-22T13:40:47;5.30;10.30
47576;DHT22;33304;52.456;13.328;2023-12-22T13:43:14;5.20;11.00
47576;DHT22;33304;52.456;13.328;2023-12-22T13:45:42;5.30;11.70
47576;DHT22;33304;52.456;13.328;2023-12-22T13:48:09;5.30;12.40
47576;DHT22;33304;52.456;13.328;2023-12-22T13:50:36;5.40;11.80
47576;DHT22;33304;52.456;13.328;2023-12-22T13:53:09;5.30;11.00
47576;DHT22;33304;52.456;13.328;2023-12-22T13:55:37;5.30;10.00
47576;DHT22;33304;52.456;13.328;2023-12-22T13:58:06;5.30;11.00
47576;DHT22;33304;52.456;13.328;2023-12-22T14:00:34;5.40;10.30
47576;DHT22;33304;52.456;13.328;2023-12-22T14:03:01;5.40;10.90
47576;DHT22;33304;52.456;13.328;2023-12-22T14:05:28;5.50;11.70
47576;DHT22;33304;52.456;13.328;2023-12-22T14:07:56;5.30;13.30
47576;DHT22;33304;52.456;13.328;2023-12-22T14:10:23;5.30;14.30
47576;DHT22;33304;52.456;13.328;2023-12-22T14:12:50;5.10;15.50
47576;DHT22;33304;52.456;13.328;2023-12-22T14:15:18;5.00;16.10
47576;DHT22;33304;52.456;13.328;2023-12-22T14:17:46;4.80;17.00
47576;DHT22;33304;52.456;13.328;2023-12-22T14:20:13;4.70;17.50
47576;DHT22;33304;52.456;13.328;2023-12-22T14:22:40;4.70;17.70
47576;DHT22;33304;52.456;13.328;2023-12-22T14:25:08;4.60;18.30
47576;DHT22;33304;52.456;13.328;2023-12-22T14:27:35;4.50;18.50
47576;DHT22;33304;52.456;13.328;2023-12-22T14:30:02;4.50;18.40
47576;DHT22;33304;52.456;13.328;2023-12-22T14:32:31;4.40;19.00
47576;DHT22;33304;52.456;13.328;2023-12-22T14:34:58;4.40;18.60
47576;DHT22;33304;52.456;13.328;2023-12-22T14:37:25;4.40;17.30
47576;DHT22;33304;52.456;13.328;2023-12-22T14:39:52;4.40;17.90
47576;DHT22;33304;52.456;13.328;2023-12-22T14:42:19;4.30;18.00
47576;DHT22;33304;52.456;13.328;2023-12-22T14:44:46;4.30;16.90
47576;DHT22;33304;52.456;13.328;2023-12-22T14:47:13;4.30;17.90
47576;DHT22;33304;52.456;13.328;2023-12-22T14:49:41;4.20;16.40
47576;DHT22;33304;52.456;13.328;2023-12-22T14:52:09;4.30;17.20
47576;DHT22;33304;52.456;13.328;2023-12-22T14:54:36;4.20;16.40
47576;DHT22;33304;52.456;13.328;2023-12-22T14:57:03;4.20;16.70
47576;DHT22;33304;52.456;13.328;2023-12-22T14:59:30;4.20;17.20
47576;DHT22;33304;52.456;13.328;2023-12-22T15:01:57;4.20;17.30
47576;DHT22;33304;52.456;13.328;2023-12-22T15:04:24;4.10;16.70
47576;DHT22;33304;52.456;13.328;2023-12-22T15:06:52;4.20;17.40
47576;DHT22;33304;52.456;13.328;2023-12-22T15:09:19;4.20;17.00
47576;DHT22;33304;52.456;13.328;2023-12-22T15:11:47;4.20;17.90
47576;DHT22;33304;52.456;13.328;2023-12-22T15:14:14;4.10;17.90
47576;DHT22;33304;52.456;13.328;2023-12-22T15:16:41;4.10;18.40
47576;DHT22;33304;52.456;13.328;2023-12-22T15:19:10;4.10;18.90
47576;DHT22;33304;52.456;13.328;2023-12-22T15:21:38;4.10;18.90
47576;DHT22;33304;52.456;13.328;2023-12-22T15:24:07;4.10;18.90
47576;DHT22;33304;52.456;13.328;2023-12-22T15:26:34;4.10;19.30
47576;DHT22;33304;52.456;13.328;2023-12-22T15:29:01;4.10;19.10
47576;DHT22;33304;52.456;13.328;2023-12-22T15:31:29;4.10;19.70
47576;DHT22;33304;52.456;13.328;2023-12-22T15:33:57;4.20;20.30